Airfield :
LOGIN :

Register | Disclaimer

   EN    FR    IT 

 










Legend :    VFR   Marginal VFR   IFR   Intensive IFR   Very Intensive IFR
Visi :
Ceiling :
>= 8 km
>= 3000ft
5 to 8 km
1000 to 3000 ft
1500m to 5 km
500 to 1000 ft
800 to 1500m
200 to 500 ft
< 800m
< 200 ft
Symbols :   Thunderstorms  Fog  Heavy snow  Heavy precipitations  Wind > 20 kt
SIGMETs :     Misc.  Thunderstorms  Icing  Turbulence  Mountain Waves  Volcanic Ashes







- Airport Elevation : 49 ft
- IATA code : GLZ


EHGR - Gilze-Rijen Airbase

CURRENT METAR :
  • 250055Z AUTO 29002KT 9999 OVC180 08/07 Q1017 BLU

EXPIRED METARs :
  • 250025Z AUTO 29003KT 9999 NCD 07/06 Q1017 BLU
  • 242355Z AUTO 29002KT 9999 NCD 08/07 Q1017 BLU
  • 242325Z AUTO VRB02KT 9999 NCD 08/06 Q1017 BLU
  • 242255Z AUTO 28003KT 240V310 9999 NCD 10/07 Q1017 BLU
  • 242225Z AUTO 31004KT 290V010 9999 NCD 09/06 Q1017 BLU

Expired Forecast.
No reported NOTAMs for that airfield.



MET'MAP, your aeronautical weather chart ! - Copyright ORBIFLY December 2007 - Disclaimer

ORBIFLY MET'MAP TEAM :

Programming & Development : Alexandra Zaïnal
Concept & Development : Baudouin d'Aumeries
Co-Development & Prog : Marc-Olivier Méhu
Technical & hardware support : Manuel Goepfert

Contact : metmap@orbifly.com




SOURCES & CREDITS :

   NOAA